Time;durP1;ratioP1;P1;durP2;ratioP2;P2;SDS_P1;SDS_P2;PMS_P1;PMS_P2;Temp;Humidity;BMP_temperature;BMP_pressure;BME280_temperature;BME280_humidity;BME280_pressure;Samples;Min_cycle;Max_cycle;Signal;HPM_P1;HPM_P2
2021/01/04 00:01:44;;;;;;;39.58;17.83;;;1.90;86.10;;;;;;4991441;28;20394;-67
2021/01/04 00:04:33;;;;;;;41.60;19.05;;;1.90;86.10;;;;;;4971608;28;20118;-67
2021/01/04 00:07:19;;;;;;;38.65;17.83;;;1.90;86.20;;;;;;4994691;28;20421;-67
2021/01/04 00:10:12;;;;;;;40.50;19.13;;;1.80;86.30;;;;;;5010940;28;20030;-67
2021/01/04 00:12:48;;;;;;;36.25;18.77;;;1.90;86.30;;;;;;5000666;28;20574;-67
2021/01/04 00:15:40;;;;;;;36.17;17.70;;;1.90;86.30;;;;;;4993614;28;20065;-67
2021/01/04 00:18:20;;;;;;;38.20;18.63;;;1.90;86.30;;;;;;4999828;28;20042;-67
2021/01/04 00:21:11;;;;;;;38.83;18.38;;;2.00;86.20;;;;;;4992689;28;20026;-67
2021/01/04 00:23:51;;;;;;;36.20;18.00;;;2.00;86.20;;;;;;4998191;28;20451;-67
2021/01/04 00:26:29;;;;;;;36.78;18.42;;;2.00;86.20;;;;;;5008484;28;20026;-67
2021/01/04 00:28:56;;;;;;;44.42;19.35;;;2.00;86.20;;;;;;5005421;28;20039;-67
2021/01/04 00:31:29;;;;;;;41.25;18.92;;;2.00;86.20;;;;;;4997380;28;20042;-67
2021/01/04 00:33:57;;;;;;;40.25;18.05;;;2.10;86.30;;;;;;4996708;28;20041;-67
2021/01/04 00:36:32;;;;;;;41.38;18.80;;;2.10;86.10;;;;;;5007925;28;20026;-67
2021/01/04 00:39:07;;;;;;;42.42;19.33;;;2.10;85.90;;;;;;5017302;28;20052;-67
2021/01/04 00:42:03;;;;;;;42.15;18.98;;;2.10;85.90;;;;;;5005511;28;20023;-67
2021/01/04 00:44:31;;;;;;;36.40;18.38;;;2.00;86.00;;;;;;4996557;28;20112;-67
2021/01/04 00:47:09;;;;;;;37.70;18.15;;;2.00;85.90;;;;;;4996159;28;20422;-67
2021/01/04 00:49:36;;;;;;;38.50;18.65;;;2.00;86.10;;;;;;5010334;28;20029;-67
2021/01/04 00:52:21;;;;;;;40.20;18.25;;;2.00;86.10;;;;;;5011993;28;20387;-67
2021/01/04 00:55:03;;;;;;;41.45;18.75;;;2.00;86.00;;;;;;4995387;28;20034;-67
2021/01/04 00:58:03;;;;;;;41.92;18.80;;;2.00;86.10;;;;;;4978143;28;20039;-67
2021/01/04 01:00:37;;;;;;;41.58;18.38;;;1.90;86.00;;;;;;4989353;28;20026;-67
2021/01/04 01:03:16;;;;;;;42.10;18.60;;;1.90;86.50;;;;;;5016871;28;20033;-67
2021/01/04 01:06:13;;;;;;;36.55;18.52;;;1.90;86.00;;;;;;5024298;28;20097;-67
2021/01/04 01:08:39;;;;;;;37.53;17.30;;;1.90;86.00;;;;;;5012274;28;20041;-66
2021/01/04 01:11:11;;;;;;;37.42;17.48;;;1.80;86.00;;;;;;5007403;28;20120;-67
2021/01/04 01:13:58;;;;;;;40.72;19.50;;;1.80;86.10;;;;;;5016925;28;20061;-67
2021/01/04 01:16:33;;;;;;;41.92;18.40;;;1.80;86.20;;;;;;5001112;28;20291;-67
2021/01/04 01:19:22;;;;;;;38.88;18.55;;;1.70;86.00;;;;;;4996715;28;20029;-66
2021/01/04 01:21:48;;;;;;;35.25;17.92;;;1.70;86.20;;;;;;4997226;28;20475;-67
2021/01/04 01:24:15;;;;;;;41.80;18.83;;;1.60;86.30;;;;;;4996389;28;20026;-67
2021/01/04 01:27:23;;;;;;;42.20;18.10;;;1.70;86.40;;;;;;4997343;28;20398;-67
2021/01/04 01:30:04;;;;;;;42.65;20.15;;;1.70;86.40;;;;;;4997402;28;20026;-67
2021/01/04 01:33:00;;;;;;;43.87;19.73;;;1.70;86.40;;;;;;4995323;28;20398;-67
2021/01/04 01:35:43;;;;;;;43.58;20.27;;;1.70;86.40;;;;;;4994103;28;20495;-67
2021/01/04 01:38:37;;;;;;;46.50;20.45;;;1.70;86.30;;;;;;4995106;28;20133;-67
2021/01/04 01:41:29;;;;;;;47.35;20.52;;;1.80;86.40;;;;;;4993667;28;20065;-67
2021/01/04 01:44:12;;;;;;;45.67;19.70;;;1.80;86.30;;;;;;5007659;28;20061;-67
2021/01/04 01:46:45;;;;;;;40.08;19.17;;;1.80;86.20;;;;;;5015824;28;20363;-67
2021/01/04 01:49:39;;;;;;;42.25;19.45;;;1.80;86.10;;;;;;4997360;28;20041;-67
2021/01/04 01:52:27;;;;;;;42.65;19.10;;;1.70;86.10;;;;;;4993603;28;20022;-67
2021/01/04 01:55:15;;;;;;;42.15;19.15;;;1.70;86.20;;;;;;4973621;28;20034;-67
2021/01/04 01:58:11;;;;;;;46.05;20.00;;;1.70;86.20;;;;;;4980487;28;20433;-67
2021/01/04 02:00:49;;;;;;;45.30;20.45;;;1.60;86.30;;;;;;5013205;28;20030;-66
2021/01/04 02:03:33;;;;;;;39.88;18.17;;;1.70;86.30;;;;;;5012309;28;20018;-67
2021/01/04 02:06:22;;;;;;;45.40;19.20;;;1.60;86.30;;;;;;5011638;28;20029;-67
2021/01/04 02:09:12;;;;;;;42.40;19.20;;;1.60;86.40;;;;;;5013063;28;20047;-67
2021/01/04 02:11:42;;;;;;;42.50;18.83;;;1.60;86.40;;;;;;5001349;28;20602;-67
2021/01/04 02:14:29;;;;;;;47.28;19.60;;;1.60;86.40;;;;;;4991260;28;20081;-67
2021/01/04 02:17:33;;;;;;;39.03;18.98;;;1.60;86.50;;;;;;5005903;28;20579;-67
2021/01/04 02:20:47;;;;;;;42.13;18.65;;;1.60;86.40;;;;;;4991671;28;20186;-67
2021/01/04 02:23:22;;;;;;;41.35;18.20;;;1.60;86.50;;;;;;4990121;28;20077;-67
2021/01/04 02:25:50;;;;;;;41.53;17.98;;;1.70;86.50;;;;;;4994749;28;20474;-67
2021/01/04 02:28:23;;;;;;;44.13;20.42;;;1.70;86.40;;;;;;5002671;28;20026;-67
2021/01/04 02:30:48;;;;;;;;;;;1.70;86.50;;;;;;4995627;28;20022;-67
2021/01/04 02:33:15;;;;;;;42.53;17.83;;;1.70;86.30;;;;;;5012098;28;19913;-67
2021/01/04 02:35:42;;;;;;;41.72;19.38;;;1.70;86.30;;;;;;5007314;28;20483;-67
2021/01/04 02:38:09;;;;;;;40.20;18.98;;;1.70;86.40;;;;;;5007898;28;20030;-67
2021/01/04 02:40:34;;;;;;;41.85;19.15;;;1.70;86.40;;;;;;5009920;28;20040;-67
2021/01/04 02:43:00;;;;;;;45.85;21.13;;;1.70;86.30;;;;;;5012366;28;20801;-67
2021/01/04 02:45:30;;;;;;;40.70;20.02;;;1.70;86.40;;;;;;5008468;28;20036;-67
2021/01/04 02:48:10;;;;;;;40.63;18.80;;;1.70;86.50;;;;;;4992069;28;20033;-67
2021/01/04 02:50:50;;;;;;;42.53;18.70;;;1.70;86.40;;;;;;4989424;28;20502;-67
2021/01/04 02:53:54;;;;;;;38.38;18.05;;;1.70;86.30;;;;;;4992669;28;20114;-67
2021/01/04 02:56:33;;;;;;;41.15;20.15;;;1.70;86.40;;;;;;4973221;28;20027;-67
2021/01/04 02:59:35;;;;;;;44.22;18.67;;;1.70;86.50;;;;;;4977256;28;20034;-67
2021/01/04 03:02:34;;;;;;;41.03;18.13;;;1.70;86.50;;;;;;4971683;28;20030;-67
2021/01/04 03:05:00;;;;;;;38.67;18.10;;;1.70;86.30;;;;;;4991953;28;20111;-67
2021/01/04 03:07:30;;;;;;;45.30;18.50;;;1.70;86.30;;;;;;5011807;28;20018;-67
2021/01/04 03:09:58;;;;;;;43.30;19.55;;;1.60;86.40;;;;;;5007903;28;20033;-67
2021/01/04 03:12:35;;;;;;;40.75;19.40;;;1.60;86.40;;;;;;5011797;28;20061;-67
2021/01/04 03:15:21;;;;;;;40.35;19.42;;;1.60;86.50;;;;;;4997499;28;20053;-67
2021/01/04 03:17:49;;;;;;;40.30;18.75;;;1.70;86.60;;;;;;4993201;28;20123;-67
2021/01/04 03:20:18;;;;;;;39.17;18.63;;;1.80;86.60;;;;;;4997879;28;20030;-67
2021/01/04 03:22:46;;;;;;;41.47;19.13;;;1.80;86.50;;;;;;4992066;28;20022;-67
2021/01/04 03:25:39;;;;;;;37.33;18.10;;;1.80;86.40;;;;;;4991372;28;20447;-67
2021/01/04 03:28:16;;;;;;;39.53;18.50;;;1.80;86.40;;;;;;4999405;28;20506;-67
2021/01/04 03:30:41;;;;;;;37.72;18.75;;;1.80;86.70;;;;;;5011721;28;20466;-67
2021/01/04 03:33:07;;;;;;;37.97;18.10;;;1.80;86.20;;;;;;5010994;28;20037;-67
2021/01/04 03:35:32;;;;;;;37.85;19.40;;;1.80;86.20;;;;;;4996063;28;20113;-67
2021/01/04 03:37:58;;;;;;;37.72;18.25;;;1.90;86.30;;;;;;4991961;28;20042;-67
2021/01/04 03:40:23;;;;;;;43.88;19.13;;;1.80;86.20;;;;;;4991902;28;20052;-67
2021/01/04 03:42:49;;;;;;;42.78;20.15;;;1.80;86.20;;;;;;5011161;28;20026;-67
2021/01/04 03:45:16;;;;;;;36.97;18.05;;;1.80;86.20;;;;;;5000902;28;20029;-67
2021/01/04 03:47:41;;;;;;;40.78;19.65;;;1.70;86.30;;;;;;4994400;28;20022;-67
2021/01/04 03:50:08;;;;;;;44.97;19.58;;;1.70;86.30;;;;;;4983875;28;20389;-67
2021/01/04 03:52:34;;;;;;;39.08;19.25;;;1.70;86.40;;;;;;4993260;28;20034;-67
2021/01/04 03:55:00;;;;;;;40.67;19.08;;;1.80;86.40;;;;;;5003334;28;20569;-67
2021/01/04 03:57:25;;;;;;;39.80;19.25;;;1.80;86.50;;;;;;4991187;28;20453;-67
2021/01/04 03:59:51;;;;;;;37.92;18.98;;;1.90;86.40;;;;;;4991538;28;20030;-67
2021/01/04 04:02:18;;;;;;;39.10;18.92;;;1.90;86.20;;;;;;5006670;28;20405;-67
2021/01/04 04:04:44;;;;;;;41.58;18.65;;;1.90;86.10;;;;;;4997986;28;20041;-67
2021/01/04 04:07:09;;;;;;;39.05;17.98;;;1.90;86.10;;;;;;4991555;28;20022;-67
2021/01/04 04:09:35;;;;;;;40.47;19.52;;;1.90;86.10;;;;;;4991154;28;20109;-67
2021/01/04 04:12:01;;;;;;;38.22;19.13;;;1.90;86.00;;;;;;4991111;28;20050;-67
2021/01/04 04:14:26;;;;;;;40.65;19.70;;;1.90;86.00;;;;;;4995867;28;20450;-67
2021/01/04 04:16:52;;;;;;;33.60;17.80;;;1.90;86.00;;;;;;4991453;28;20368;-67
2021/01/04 04:19:17;;;;;;;37.38;18.70;;;1.80;86.10;;;;;;4990891;28;20101;-67
2021/01/04 04:21:50;;;;;;;40.67;18.90;;;1.80;86.10;;;;;;4991176;28;20027;-67
2021/01/04 04:24:15;;;;;;;39.67;19.15;;;1.90;86.20;;;;;;4990905;28;20653;-67
2021/01/04 04:26:41;;;;;;;41.60;19.42;;;1.80;86.10;;;;;;4990972;28;20034;-67
2021/01/04 04:29:06;;;;;;;44.70;20.90;;;1.90;86.10;;;;;;4991581;28;20054;-67
2021/01/04 04:31:32;;;;;;;44.13;19.70;;;1.90;86.20;;;;;;4991360;28;20042;-67
2021/01/04 04:33:57;;;;;;;42.92;19.75;;;1.90;86.20;;;;;;4999381;28;20045;-67
2021/01/04 04:36:25;;;;;;;41.03;19.98;;;1.90;86.10;;;;;;4993752;28;20035;-67
2021/01/04 04:38:52;;;;;;;44.45;20.15;;;1.90;86.10;;;;;;5024226;28;20067;-67
2021/01/04 04:41:39;;;;;;;43.85;20.70;;;1.90;86.10;;;;;;5010486;28;20053;-67
2021/01/04 04:44:25;;;;;;;41.15;19.67;;;2.00;86.10;;;;;;4990460;28;20070;-67
2021/01/04 04:47:16;;;;;;;41.75;19.63;;;2.00;85.90;;;;;;4973244;28;20022;-67
2021/01/04 04:50:01;;;;;;;42.58;19.05;;;2.00;86.00;;;;;;4983106;28;20038;-67
2021/01/04 04:52:45;;;;;;;42.92;20.30;;;2.00;86.00;;;;;;4991026;28;20064;-67
2021/01/04 04:55:32;;;;;;;40.60;19.23;;;2.00;86.10;;;;;;4990277;28;20541;-67
2021/01/04 04:58:28;;;;;;;38.22;18.65;;;2.00;85.80;;;;;;5005786;28;20031;-67
2021/01/04 05:00:56;;;;;;;43.08;19.80;;;2.00;85.80;;;;;;4987787;28;20030;-67
2021/01/04 05:03:35;;;;;;;40.03;18.60;;;2.00;85.80;;;;;;5008260;28;20049;-67
2021/01/04 05:06:25;;;;;;;42.78;19.63;;;2.00;85.90;;;;;;5008191;28;20030;-67
2021/01/04 05:09:07;;;;;;;38.00;18.63;;;2.00;85.90;;;;;;5013053;28;20040;-67
2021/01/04 05:11:38;;;;;;;40.22;18.52;;;2.00;85.90;;;;;;4997185;28;20113;-67
2021/01/04 05:14:10;;;;;;;40.78;19.33;;;1.90;86.00;;;;;;4993539;28;20089;-67
2021/01/04 05:16:53;;;;;;;40.70;18.77;;;1.90;86.00;;;;;;4992750;28;20379;-67
2021/01/04 05:19:40;;;;;;;41.42;19.75;;;1.90;85.90;;;;;;4994364;28;20026;-67
2021/01/04 05:22:31;;;;;;;44.92;19.95;;;1.90;86.00;;;;;;4994291;28;20479;-66
2021/01/04 05:25:38;;;;;;;38.75;18.95;;;2.00;86.10;;;;;;4994466;28;20082;-67
2021/01/04 05:28:25;;;;;;;36.50;17.80;;;2.00;86.00;;;;;;4994040;28;20092;-67
2021/01/04 05:31:17;;;;;;;43.15;19.52;;;2.10;85.90;;;;;;4992166;28;20057;-67
2021/01/04 05:33:46;;;;;;;42.78;20.27;;;2.10;85.80;;;;;;5009270;28;20126;-67
2021/01/04 05:36:40;;;;;;;46.42;20.08;;;2.10;85.70;;;;;;5010290;28;20029;-67
2021/01/04 05:39:19;;;;;;;42.17;19.98;;;2.10;85.70;;;;;;5012859;28;20632;-67
2021/01/04 05:42:05;;;;;;;43.42;20.42;;;2.10;85.70;;;;;;5008640;28;20479;-67
2021/01/04 05:44:49;;;;;;;41.63;20.13;;;2.10;85.50;;;;;;4996624;28;20028;-66
2021/01/04 05:49:50;;;;;;;42.28;19.27;;;2.10;85.50;;;;;;5004666;28;20057;-66
2021/01/04 05:52:17;;;;;;;40.70;19.02;;;2.10;85.60;;;;;;5011837;28;20032;-65
2021/01/04 05:54:43;;;;;;;47.03;20.73;;;2.00;85.60;;;;;;5011758;28;20069;-66
2021/01/04 05:57:10;;;;;;;41.20;19.30;;;2.00;85.80;;;;;;5013083;28;20116;-67
2021/01/04 05:59:53;;;;;;;45.78;20.08;;;2.00;85.80;;;;;;5011744;28;20037;-65
2021/01/04 06:02:25;;;;;;;41.15;19.42;;;2.10;85.70;;;;;;5012541;28;20022;-66
2021/01/04 06:04:51;;;;;;;41.35;19.65;;;2.10;85.80;;;;;;5012238;28;20026;-65
2021/01/04 06:07:17;;;;;;;45.92;20.52;;;2.10;85.70;;;;;;5012892;28;20050;-65
2021/01/04 06:09:54;;;;;;;46.42;20.45;;;2.10;85.70;;;;;;5012062;28;20033;-66
2021/01/04 06:12:34;;;;;;;41.80;18.92;;;2.00;85.60;;;;;;5012309;28;20032;-65
2021/01/04 06:14:59;;;;;;;42.80;18.83;;;2.00;85.60;;;;;;5011190;28;20052;-66
2021/01/04 06:17:44;;;;;;;45.20;19.52;;;1.90;85.60;;;;;;5012087;28;20026;-68
2021/01/04 06:20:42;;;;;;;44.35;19.35;;;1.80;85.90;;;;;;4992541;28;20058;-65
2021/01/04 06:23:31;;;;;;;41.00;17.25;;;1.80;85.90;;;;;;5006957;28;20030;-68
2021/01/04 06:26:10;;;;;;;39.15;17.58;;;1.70;85.80;;;;;;5003763;28;20474;-66
2021/01/04 06:29:06;;;;;;;45.05;20.42;;;1.70;85.90;;;;;;5010342;28;20026;-67
2021/01/04 06:31:39;;;;;;;43.17;19.38;;;1.70;86.00;;;;;;5003157;28;20037;-66
2021/01/04 06:34:12;;;;;;;;;;;1.70;86.10;;;;;;5011867;28;20029;-66
2021/01/04 06:36:39;;;;;;;44.22;18.88;;;1.70;86.20;;;;;;5012017;28;19929;-66
2021/01/04 06:39:12;;;;;;;43.50;19.65;;;1.70;85.90;;;;;;5012234;28;20037;-65
2021/01/04 06:41:38;;;;;;;50.50;21.58;;;1.70;86.20;;;;;;5010664;28;20034;-67
2021/01/04 06:44:10;;;;;;;50.85;21.33;;;1.70;86.20;;;;;;5011786;28;20021;-68
2021/01/04 06:47:00;;;;;;;51.13;20.75;;;1.80;86.30;;;;;;5011866;28;20026;-67
2021/01/04 06:49:31;;;;;;;52.65;20.67;;;1.90;86.20;;;;;;5001589;28;20511;-67
2021/01/04 06:52:02;;;;;;;48.70;21.10;;;1.90;86.00;;;;;;5011389;28;20454;-66
2021/01/04 06:54:56;;;;;;;51.55;20.92;;;1.90;85.90;;;;;;5011087;28;20034;-66
2021/01/04 06:57:49;;;;;;;53.75;21.23;;;2.00;85.70;;;;;;5011883;28;20390;-65
2021/01/04 07:00:37;;;;;;;53.85;23.45;;;2.10;85.70;;;;;;5011276;28;20385;-66
2021/01/04 07:03:23;;;;;;;45.60;20.60;;;2.10;85.50;;;;;;5026277;28;20033;-66
2021/01/04 07:05:55;;;;;;;48.05;21.38;;;2.10;85.60;;;;;;5010703;28;20022;-66
2021/01/04 07:08:50;;;;;;;50.80;21.35;;;2.10;85.60;;;;;;5010593;28;20057;-66
2021/01/04 07:11:28;;;;;;;54.53;21.38;;;2.10;85.60;;;;;;5011642;28;20061;-65
2021/01/04 07:14:21;;;;;;;48.97;21.63;;;2.20;85.60;;;;;;5010634;28;20025;-65
2021/01/04 07:17:01;;;;;;;50.13;20.25;;;2.20;85.50;;;;;;5011784;28;20026;-66
2021/01/04 07:19:35;;;;;;;59.25;21.05;;;2.20;85.40;;;;;;5006334;28;20085;-66
2021/01/04 07:22:07;;;;;;;53.53;20.08;;;2.20;85.40;;;;;;5010796;28;20029;-68
2021/01/04 07:25:03;;;;;;;51.30;19.53;;;2.20;85.40;;;;;;4991399;28;20023;-65
2021/01/04 07:27:46;;;;;;;53.90;20.65;;;2.20;85.40;;;;;;5002090;28;20018;-65
2021/01/04 07:30:20;;;;;;;56.50;21.10;;;2.20;85.30;;;;;;5011836;28;20498;-65
2021/01/04 07:32:56;;;;;;;56.35;20.50;;;2.20;85.50;;;;;;5026785;28;20022;-65
2021/01/04 07:35:31;;;;;;;53.08;20.10;;;2.20;85.30;;;;;;5011683;28;20505;-65
2021/01/04 07:38:06;;;;;;;54.75;20.70;;;2.10;85.40;;;;;;5027148;28;20036;-66
2021/01/04 07:41:02;;;;;;;46.10;19.70;;;2.00;85.40;;;;;;5011563;28;20506;-66
2021/01/04 07:43:52;;;;;;;58.95;19.80;;;2.00;85.60;;;;;;4997349;28;20490;-66
2021/01/04 07:46:50;;;;;;;58.50;20.75;;;1.90;85.50;;;;;;4996824;28;20710;-65
2021/01/04 07:49:46;;;;;;;52.70;20.35;;;1.90;85.80;;;;;;5010587;28;20052;-65
2021/01/04 07:52:49;;;;;;;55.60;20.55;;;1.90;85.90;;;;;;5011806;28;20446;-67
2021/01/04 07:55:53;;;;;;;57.22;20.55;;;1.80;85.90;;;;;;5026220;28;20033;-65
2021/01/04 07:58:39;;;;;;;53.65;20.38;;;1.80;85.90;;;;;;5008678;28;20053;-67
2021/01/04 08:01:30;;;;;;;54.35;20.55;;;1.90;86.10;;;;;;5018940;28;20370;-65
2021/01/04 08:04:01;;;;;;;56.55;20.80;;;1.90;85.80;;;;;;5026293;28;20026;-65
2021/01/04 08:07:10;;;;;;;57.75;21.98;;;1.90;85.80;;;;;;5027386;28;20021;-66
2021/01/04 08:10:07;;;;;;;58.28;20.38;;;1.80;85.90;;;;;;5010316;28;20489;-68
2021/01/04 08:13:27;;;;;;;49.85;20.75;;;1.90;86.00;;;;;;5010891;28;20096;-66
2021/01/04 08:16:12;;;;;;;58.15;21.17;;;1.90;86.10;;;;;;4968043;28;20096;-67
2021/01/04 08:18:38;;;;;;;54.28;20.35;;;2.00;86.10;;;;;;5007061;28;20038;-67
2021/01/04 08:21:20;;;;;;;59.17;21.35;;;2.10;86.00;;;;;;5010845;28;20030;-66
2021/01/04 08:24:06;;;;;;;57.05;21.65;;;2.10;85.90;;;;;;5001530;28;20022;-66
2021/01/04 08:26:46;;;;;;;55.17;21.17;;;2.20;85.80;;;;;;5007905;28;20027;-65
2021/01/04 08:29:17;;;;;;;57.70;22.38;;;2.20;85.70;;;;;;5004951;28;20035;-65
2021/01/04 08:32:18;;;;;;;64.13;21.83;;;2.20;85.70;;;;;;5023495;28;20026;-67
2021/01/04 08:34:45;;;;;;;57.03;21.48;;;2.20;85.70;;;;;;5008603;28;20041;-67
2021/01/04 08:37:13;;;;;;;59.08;21.65;;;2.30;85.70;;;;;;5020185;28;20017;-66
2021/01/04 08:39:46;;;;;;;56.08;21.42;;;2.30;85.70;;;;;;5011256;28;20030;-65
2021/01/04 08:42:20;;;;;;;51.53;21.85;;;2.30;85.50;;;;;;5023124;28;20382;-66
2021/01/04 08:45:01;;;;;;;58.10;21.48;;;2.40;85.50;;;;;;5014222;28;20022;-66
2021/01/04 08:47:47;;;;;;;56.35;21.45;;;2.40;85.50;;;;;;5030673;28;20108;-65
2021/01/04 08:50:25;;;;;;;53.25;21.35;;;2.40;85.40;;;;;;5027185;28;20034;-65
2021/01/04 08:52:53;;;;;;;49.20;21.20;;;2.40;85.50;;;;;;5005665;28;20546;-65
2021/01/04 08:55:29;;;;;;;53.20;20.95;;;2.30;85.40;;;;;;4994129;28;20015;-65
2021/01/04 08:57:55;;;;;;;54.25;20.90;;;2.30;85.50;;;;;;5014560;28;20026;-66
2021/01/04 09:00:30;;;;;;;52.90;20.20;;;2.30;85.50;;;;;;5029927;28;20390;-66
2021/01/04 09:02:56;;;;;;;56.63;21.30;;;2.30;85.50;;;;;;5013235;28;20121;-66
2021/01/04 09:05:35;;;;;;;54.58;21.25;;;2.30;85.60;;;;;;5014446;28;20506;-67
2021/01/04 09:08:03;;;;;;;52.38;21.50;;;2.30;85.50;;;;;;5014716;28;20034;-66
2021/01/04 09:10:50;;;;;;;61.20;21.15;;;2.30;85.50;;;;;;5012606;28;20029;-66
2021/01/04 09:13:21;;;;;;;55.63;20.27;;;2.20;85.50;;;;;;5014810;28;20156;-66
2021/01/04 09:15:48;;;;;;;61.58;22.08;;;2.20;85.60;;;;;;5011952;28;20109;-66
2021/01/04 09:18:31;;;;;;;53.67;21.13;;;2.10;85.60;;;;;;5005912;28;20101;-66
2021/01/04 09:21:06;;;;;;;48.78;20.27;;;2.10;85.70;;;;;;5003480;28;20045;-66
2021/01/04 09:23:40;;;;;;;50.40;20.38;;;2.10;85.80;;;;;;5015014;28;20022;-66
2021/01/04 09:26:36;;;;;;;55.25;20.75;;;2.10;85.80;;;;;;5013480;28;20068;-66
2021/01/04 09:29:20;;;;;;;55.72;20.25;;;2.10;85.80;;;;;;4994976;28;20499;-66
2021/01/04 09:31:49;;;;;;;53.63;19.85;;;2.20;85.90;;;;;;5012734;28;20068;-65
2021/01/04 09:34:17;;;;;;;61.15;21.73;;;2.20;85.90;;;;;;5006435;28;20413;-67
2021/01/04 09:36:43;;;;;;;56.42;19.85;;;2.20;85.80;;;;;;5013779;28;20034;-66
2021/01/04 09:39:10;;;;;;;58.17;19.30;;;2.20;85.80;;;;;;5013948;28;20100;-66
2021/01/04 09:41:36;;;;;;;58.63;21.80;;;2.20;85.90;;;;;;5008696;28;20084;-66
2021/01/04 09:44:19;;;;;;;57.08;21.00;;;2.20;85.90;;;;;;5012247;28;20108;-66
2021/01/04 09:47:01;;;;;;;57.72;19.48;;;2.30;86.00;;;;;;5014510;28;20025;-66
2021/01/04 09:49:37;;;;;;;53.65;20.75;;;2.30;85.80;;;;;;5014122;28;20073;-66
2021/01/04 09:52:26;;;;;;;65.68;22.58;;;2.30;85.80;;;;;;5008784;28;20445;-65
2021/01/04 09:54:57;;;;;;;46.05;19.23;;;2.30;85.80;;;;;;5010692;28;20026;-67
2021/01/04 09:57:24;;;;;;;55.53;20.77;;;2.30;85.80;;;;;;5014431;28;20037;-66
2021/01/04 09:59:52;;;;;;;56.42;20.50;;;2.40;85.90;;;;;;5013548;28;20113;-67
2021/01/04 10:02:26;;;;;;;55.55;20.92;;;2.40;85.90;;;;;;5001183;28;20032;-66
2021/01/04 10:04:52;;;;;;;56.97;20.92;;;2.40;85.80;;;;;;5013020;28;20021;-66
2021/01/04 10:07:26;;;;;;;54.67;20.70;;;2.40;85.60;;;;;;5013718;28;20124;-66
2021/01/04 10:09:53;;;;;;;53.30;20.10;;;2.40;85.60;;;;;;5013335;28;20037;-66
2021/01/04 10:12:23;;;;;;;63.65;24.02;;;2.40;85.60;;;;;;5002870;28;20037;-66
2021/01/04 10:14:54;;;;;;;62.63;21.08;;;2.40;85.70;;;;;;5010641;28;20088;-66
2021/01/04 10:17:41;;;;;;;56.38;19.55;;;2.50;85.80;;;;;;5012558;28;20028;-66
2021/01/04 10:20:16;;;;;;;52.78;19.45;;;2.50;85.60;;;;;;4993878;28;20030;-67
2021/01/04 10:22:46;;;;;;;54.72;20.50;;;2.50;85.70;;;;;;5010465;28;20018;-66
2021/01/04 10:25:22;;;;;;;60.65;22.95;;;2.50;85.70;;;;;;5011418;28;20037;-66
2021/01/04 10:27:54;;;;;;;59.60;21.48;;;2.50;85.80;;;;;;5029040;28;20052;-66
2021/01/04 10:30:25;;;;;;;59.67;22.48;;;2.50;85.70;;;;;;5011715;28;20033;-66
2021/01/04 10:33:09;;;;;;;58.03;20.13;;;2.50;85.70;;;;;;5013473;28;20030;-66
2021/01/04 10:35:35;;;;;;;54.17;20.08;;;2.50;85.60;;;;;;5012605;28;20087;-66
2021/01/04 10:38:07;;;;;;;58.42;20.98;;;2.60;85.60;;;;;;5028215;28;20038;-66
2021/01/04 10:40:43;;;;;;;55.05;21.02;;;2.60;85.60;;;;;;5013254;28;20104;-66
2021/01/04 10:43:08;;;;;;;58.15;21.45;;;2.50;85.50;;;;;;5004303;28;20359;-66
2021/01/04 10:45:37;;;;;;;50.90;20.35;;;2.50;85.60;;;;;;5012480;28;20029;-66
2021/01/04 10:48:12;;;;;;;54.00;19.65;;;2.50;85.60;;;;;;4993542;28;20105;-66
2021/01/04 10:50:40;;;;;;;57.08;21.10;;;2.50;85.70;;;;;;5001272;28;20040;-66
2021/01/04 10:53:09;;;;;;;55.53;20.40;;;2.50;85.70;;;;;;5001137;28;20375;-66
2021/01/04 10:55:47;;;;;;;62.83;21.92;;;2.40;85.60;;;;;;5027185;28;20084;-66
2021/01/04 10:58:38;;;;;;;49.50;20.00;;;2.40;85.70;;;;;;5012368;28;20030;-66
2021/01/04 11:01:13;;;;;;;49.30;19.58;;;2.40;85.70;;;;;;5012551;28;20140;-66
2021/01/04 11:03:57;;;;;;;56.42;19.92;;;2.50;85.80;;;;;;5012167;28;20037;-65
2021/01/04 11:06:26;;;;;;;47.08;19.23;;;2.50;85.80;;;;;;5011094;28;20032;-66
2021/01/04 11:08:52;;;;;;;46.38;18.77;;;2.50;85.70;;;;;;5010671;28;20034;-67
2021/01/04 11:11:34;;;;;;;53.85;20.27;;;2.50;85.70;;;;;;5005418;28;20077;-67
2021/01/04 11:14:23;;;;;;;54.97;20.27;;;2.50;85.70;;;;;;4991354;28;20073;-67
2021/01/04 11:16:50;;;;;;;49.78;19.40;;;2.50;85.80;;;;;;5004510;28;20441;-66
2021/01/04 11:19:31;;;;;;;50.85;19.88;;;2.50;85.70;;;;;;5011813;28;20109;-66
2021/01/04 11:22:16;;;;;;;50.10;17.88;;;2.50;85.80;;;;;;5011914;28;20045;-67
2021/01/04 11:24:42;;;;;;;43.97;17.58;;;2.50;85.70;;;;;;5010731;28;20030;-67
2021/01/04 11:27:08;;;;;;;44.45;18.35;;;2.50;85.70;;;;;;5024596;28;20113;-66
2021/01/04 11:29:37;;;;;;;45.10;19.52;;;2.50;85.70;;;;;;5010287;28;20037;-65
2021/01/04 11:32:04;;;;;;;45.20;18.55;;;2.50;85.80;;;;;;5014783;28;20386;-66
2021/01/04 11:34:30;;;;;;;45.20;18.40;;;2.50;85.70;;;;;;5006661;28;20077;-66
2021/01/04 11:36:55;;;;;;;43.28;19.15;;;2.50;85.80;;;;;;5000049;28;20109;-67
2021/01/04 11:39:22;;;;;;;47.33;19.67;;;2.60;85.80;;;;;;5013060;28;20058;-68
2021/01/04 11:41:48;;;;;;;44.10;19.38;;;2.60;85.80;;;;;;5007018;28;20026;-66
2021/01/04 11:44:14;;;;;;;47.15;20.00;;;2.70;85.60;;;;;;5011124;28;20423;-66
2021/01/04 11:46:39;;;;;;;39.22;17.02;;;2.70;85.60;;;;;;5011006;28;20100;-68
2021/01/04 11:49:05;;;;;;;43.70;18.52;;;2.70;85.40;;;;;;5059497;23;20142;-66
2021/01/04 11:51:31;;;;;;;45.05;19.42;;;2.70;85.40;;;;;;4987551;28;20026;-66
2021/01/04 11:53:57;;;;;;;41.30;17.10;;;2.70;85.40;;;;;;4989822;28;20018;-66
2021/01/04 11:56:23;;;;;;;36.15;16.70;;;2.80;85.30;;;;;;4991583;28;20038;-66
2021/01/04 11:58:49;;;;;;;35.25;16.35;;;2.70;85.20;;;;;;4989884;28;20030;-66
2021/01/04 12:01:16;;;;;;;40.85;18.73;;;2.70;85.20;;;;;;4991293;28;20026;-66
2021/01/04 12:03:42;;;;;;;41.70;18.13;;;2.80;85.20;;;;;;4997420;28;20034;-66
2021/01/04 12:06:08;;;;;;;37.80;16.80;;;2.80;85.20;;;;;;4978826;28;20125;-66
2021/01/04 12:08:34;;;;;;;31.98;15.02;;;2.80;85.00;;;;;;4990901;28;20027;-66
2021/01/04 12:11:00;;;;;;;31.38;15.73;;;2.80;84.90;;;;;;4991254;28;20498;-66
2021/01/04 12:13:26;;;;;;;38.55;16.90;;;2.70;84.90;;;;;;4990949;28;20038;-68
2021/01/04 12:15:53;;;;;;;34.55;16.25;;;2.70;85.10;;;;;;4973229;28;20525;-68
2021/01/04 12:18:19;;;;;;;38.55;16.77;;;2.80;85.10;;;;;;4990264;28;20075;-67
2021/01/04 12:20:45;;;;;;;42.03;17.50;;;2.80;84.90;;;;;;4990961;28;20033;-67
2021/01/04 12:23:11;;;;;;;39.60;16.95;;;2.80;85.00;;;;;;4990765;28;20030;-67
2021/01/04 12:25:37;;;;;;;44.35;19.25;;;2.90;85.00;;;;;;4989033;28;20076;-66
2021/01/04 12:28:03;;;;;;;40.55;17.45;;;2.90;84.90;;;;;;4990988;28;20026;-67
2021/01/04 12:30:28;;;;;;;42.50;16.67;;;2.90;84.80;;;;;;4991157;28;20034;-67
2021/01/04 12:32:55;;;;;;;45.00;19.15;;;2.80;84.80;;;;;;4990685;28;20142;-67
2021/01/04 12:35:21;;;;;;;43.85;18.83;;;2.80;84.80;;;;;;4990472;28;20027;-67
2021/01/04 12:37:47;;;;;;;46.13;18.98;;;2.80;84.90;;;;;;4990348;28;20042;-67
2021/01/04 12:40:16;;;;;;;42.47;18.55;;;2.80;85.00;;;;;;4989702;28;20084;-67
2021/01/04 12:42:42;;;;;;;47.22;19.70;;;2.80;84.90;;;;;;4973081;28;20030;-67
2021/01/04 12:45:09;;;;;;;50.72;19.50;;;2.80;85.00;;;;;;4990425;28;20032;-67
2021/01/04 12:47:34;;;;;;;47.35;20.63;;;2.80;85.00;;;;;;4988758;28;20026;-67
2021/01/04 12:50:00;;;;;;;53.70;21.23;;;2.80;85.10;;;;;;4990790;28;20038;-67
2021/01/04 12:52:26;;;;;;;49.92;18.77;;;2.90;85.20;;;;;;4990437;28;20147;-67
2021/01/04 12:54:51;;;;;;;50.53;19.83;;;2.90;85.10;;;;;;4990366;28;20026;-66
2021/01/04 12:57:18;;;;;;;50.35;19.58;;;2.90;84.90;;;;;;4990621;28;20530;-66
2021/01/04 12:59:43;;;;;;;49.95;19.40;;;2.90;84.80;;;;;;4990394;28;20081;-67
2021/01/04 13:02:10;;;;;;;50.95;20.17;;;2.90;84.90;;;;;;4990594;28;20037;-67
2021/01/04 13:04:40;;;;;;;53.55;20.30;;;2.90;85.00;;;;;;4989582;28;20018;-67
2021/01/04 13:07:06;;;;;;;50.60;19.67;;;2.90;84.90;;;;;;4990172;28;20031;-67
2021/01/04 13:09:32;;;;;;;56.17;19.75;;;2.90;84.90;;;;;;4990450;28;20498;-67
2021/01/04 13:11:58;;;;;;;47.67;20.58;;;2.90;84.90;;;;;;4990281;28;20031;-67
2021/01/04 13:14:24;;;;;;;48.53;19.02;;;2.90;85.10;;;;;;4989926;28;20034;-66
2021/01/04 13:16:49;;;;;;;55.30;20.38;;;2.80;85.00;;;;;;4989339;28;20095;-67
2021/01/04 13:19:16;;;;;;;58.42;20.98;;;2.80;85.10;;;;;;4989803;28;20437;-67
2021/01/04 13:21:42;;;;;;;50.55;18.30;;;2.80;85.00;;;;;;4980640;28;20023;-67
2021/01/04 13:24:10;;;;;;;52.72;20.23;;;2.80;85.10;;;;;;4989410;28;20022;-67
2021/01/04 13:26:44;;;;;;;49.38;20.33;;;2.80;85.20;;;;;;4990368;28;20019;-67